Bei Facebook empfehlenBei Twitter postenGoogle plusPinterest

Das Wetter im Erzgebirge am 05.10.2015

Wetter und Klima am 05.10.2015 Holzhau im Erzgebirge (630m ü.NN)
Letzte gemessene Temperatur und Uhrzeit der Messung23:45:00 Uhr10.80 °C
Temperatur (Maximum / Höchstwert) und Uhrzeit der Messung14:30:00 Uhr19.80 °C
Temperatur (Minimum / Tiefstwert) und Uhrzeit der Messung07:45:004.40 °C
Errechneter Absolutwert der Temperaturschwankungen zwischen Tmin und Tmax des Tages15.40 K
Errechnete Tagesmitteltemperatur10.91771 °C
Gesamt - Niederschlag des Tages (in flüssiger Form)0.00 Liter / m²
Luftdruck (Maximum / Höchstwert) und Zeitpunkt der Messung10:30:00 Uhr1014.50 hPa
Luftdruck (Minimum / Tiefstwert) und Zeitpunkt der Messung23:45:00 Uhr1009.80 hPa
Errechneter Absolutwert der Luftdruckschwankungen des Tages4.70 hPa
Höchste gemessene Windgeschwindigkeit und Uhrzeit der Messung15:30:00 Uhr8.28 km/h
Errechnete Windhäufigkeit in Relation zu den Messwerten des Tages8.33333 %
Niedrigste Windkühle (Windchill) und Zeitpunkt der Messung07:15:00 Uhr3.60 °C
Taupunkt (Maximum / Höchstwert) und Uhrzeit der Messung11:45:00 Uhr15.00 °C
Taupunkt (Minimum / Tiefstwert) und Uhrzeit der Messung06:45:003.20 °C
Anzahl der automatisch eingelesenen Messwerte 96

Detaillierte Wetter- und Klima- Messwerte für den 05.10.2015 in Holzhau im Erzgebirge (630m ü.NN)
ZeitTemperaturLuftdruckRel. LuftfeuchteWindWindrichtungWindchillTaupunktNiederschlag l/m²
23:45:0010.80 °C1009.80 hPa91.00 %9.40 °C 
23:30:0010.50 °C1009.90 hPa91.00 %9.10 °C 
23:15:0010.50 °C1010.40 hPa91.00 %9.10 °C 
23:00:0010.40 °C1010.40 hPa91.00 %9.00 °C 
22:45:0010.10 °C1010.70 hPa90.00 %8.50 °C 
22:30:009.90 °C1010.70 hPa90.00 %8.30 °C 
22:15:009.30 °C1011.00 hPa90.00 %7.70 °C 
22:00:008.60 °C1011.20 hPa89.00 %6.90 °C 
21:45:008.30 °C1011.00 hPa89.00 %6.60 °C 
21:30:008.20 °C1011.20 hPa89.00 %6.50 °C 
21:15:008.40 °C1011.30 hPa88.00 %6.50 °C 
21:00:008.80 °C1011.40 hPa88.00 %6.90 °C 
20:45:008.90 °C1011.40 hPa88.00 %7.00 °C 
20:30:008.40 °C1011.50 hPa86.00 %6.20 °C 
20:15:008.60 °C1011.50 hPa86.00 %6.40 °C 
20:00:008.90 °C1011.50 hPa85.00 %6.50 °C 
19:45:009.30 °C1011.60 hPa84.00 %6.70 °C 
19:30:009.60 °C1011.80 hPa84.00 %7.00 °C 
19:15:009.90 °C1011.70 hPa82.00 %7.00 °C 
19:00:0010.30 °C1011.80 hPa81.00 %7.20 °C 
18:45:0010.90 °C1011.90 hPa79.00 %7.40 °C 
18:30:0011.90 °C1011.90 hPa78.00 %8.20 °C 
18:15:0013.10 °C1012.00 hPa75.00 %8.80 °C 
18:00:0014.50 °C1012.10 hPa73.00 %9.70 °C 
17:45:0015.80 °C1012.20 hPa72.00 %10.80 °C 
17:30:0016.40 °C1012.10 hPa72.00 %11.30 °C 
17:15:0016.60 °C1012.00 hPa72.00 %11.50 °C 
17:00:0016.50 °C1012.20 hPa71.00 %11.20 °C 
16:45:0017.00 °C1012.20 hPa69.00 %6.84 km/hSSW17.40 °C11.30 °C 
16:30:0017.60 °C1012.60 hPa69.00 %11.80 °C 
16:15:0017.30 °C1013.00 hPa70.00 %11.80 °C 
16:00:0017.00 °C1013.00 hPa68.00 %11.10 °C 
15:45:0017.40 °C1013.10 hPa68.00 %11.40 °C 
15:30:0017.60 °C1013.00 hPa69.00 %8.28 km/hSW17.90 °C11.80 °C 
15:15:0017.60 °C1013.00 hPa68.00 %11.60 °C 
15:00:0018.10 °C1013.00 hPa68.00 %12.10 °C 
14:45:0019.00 °C1013.20 hPa65.00 %1.44 km/hSSO19.00 °C12.30 °C 
14:30:0019.80 °C1013.20 hPa67.00 %13.50 °C 
14:15:0019.10 °C1013.50 hPa68.00 %8.28 km/hS19.70 °C13.10 °C 
14:00:0018.90 °C1013.90 hPa69.00 %13.10 °C 
13:45:0018.80 °C1014.00 hPa71.00 %13.40 °C 
13:30:0017.60 °C1014.10 hPa72.00 %12.50 °C 
13:15:0017.90 °C1014.20 hPa72.00 %12.80 °C 
13:00:0018.60 °C1014.40 hPa73.00 %13.70 °C 
12:45:0018.40 °C1014.30 hPa77.00 %14.30 °C 
12:30:0017.30 °C1014.40 hPa79.00 %1.80 km/hSO17.30 °C13.60 °C 
12:15:0017.00 °C1014.30 hPa82.00 %13.90 °C 
12:00:0016.80 °C1014.40 hPa86.00 %14.40 °C 
11:45:0016.80 °C1014.20 hPa89.00 %15.00 °C 
11:30:0016.10 °C1014.20 hPa91.00 %14.60 °C 
11:15:0015.80 °C1014.30 hPa93.00 %14.70 °C 
11:00:0014.90 °C1014.40 hPa94.00 %13.90 °C 
10:45:0013.30 °C1014.20 hPa95.00 %12.50 °C 
10:30:0011.80 °C1014.50 hPa95.00 %11.00 °C 
10:15:0011.00 °C1014.40 hPa95.00 %10.20 °C 
10:00:009.90 °C1014.40 hPa94.00 %9.00 °C 
09:45:008.50 °C1014.40 hPa94.00 %7.60 °C 
09:30:007.90 °C1014.30 hPa94.00 %7.00 °C 
09:15:007.30 °C1014.20 hPa94.00 %6.40 °C 
09:00:006.30 °C1014.30 hPa94.00 %5.40 °C 
08:45:005.60 °C1014.00 hPa93.00 %4.60 °C 
08:30:005.00 °C1014.10 hPa93.00 %4.00 °C 
08:15:004.80 °C1014.00 hPa93.00 %3.80 °C 
08:00:004.50 °C1014.00 hPa93.00 %3.50 °C 
07:45:004.40 °C1013.90 hPa93.00 %3.40 °C 
07:30:004.60 °C1013.90 hPa93.00 %3.60 °C 
07:15:004.60 °C1013.80 hPa92.00 %5.04 km/hOSO3.60 °C3.40 °C 
07:00:004.50 °C1013.80 hPa92.00 %3.30 °C 
06:45:004.40 °C1013.90 hPa92.00 %3.20 °C 
06:30:004.90 °C1014.10 hPa92.00 %3.70 °C 
06:15:004.90 °C1014.10 hPa92.00 %3.96 km/hO4.90 °C3.70 °C 
06:00:004.90 °C1014.10 hPa92.00 %3.70 °C 
05:45:005.10 °C1014.00 hPa92.00 %3.90 °C 
05:30:005.30 °C1014.30 hPa92.00 %4.10 °C 
05:15:005.40 °C1014.20 hPa92.00 %4.20 °C 
05:00:005.60 °C1014.10 hPa91.00 %4.20 °C 
04:45:006.10 °C1014.10 hPa91.00 %4.70 °C 
04:30:006.10 °C1013.90 hPa91.00 %2.88 km/hOSO6.10 °C4.70 °C 
04:15:006.30 °C1013.70 hPa91.00 %4.90 °C 
04:00:006.40 °C1013.80 hPa91.00 %5.00 °C 
03:45:006.80 °C1013.50 hPa91.00 %5.40 °C 
03:30:006.90 °C1013.80 hPa91.00 %5.50 °C 
03:15:007.20 °C1013.70 hPa90.00 %5.70 °C 
03:00:007.60 °C1013.70 hPa90.00 %6.10 °C 
02:45:008.10 °C1013.70 hPa90.00 %6.60 °C 
02:30:008.60 °C1013.80 hPa90.00 %7.10 °C 
02:15:009.30 °C1013.90 hPa91.00 %7.90 °C 
02:00:009.60 °C1013.80 hPa91.00 %8.20 °C 
01:45:009.80 °C1014.00 hPa90.00 %8.20 °C 
01:30:009.90 °C1013.80 hPa90.00 %8.30 °C 
01:15:009.90 °C1013.90 hPa90.00 %8.30 °C 
01:00:009.90 °C1013.90 hPa90.00 %8.30 °C 
00:45:009.90 °C1014.00 hPa90.00 %8.30 °C 
00:30:009.90 °C1013.90 hPa90.00 %8.30 °C 
00:15:009.80 °C1014.00 hPa90.00 %8.20 °C 
00:00:009.70 °C1014.10 hPa89.00 %8.00 °C 

Permanenter Link zu dieser Seite: Wetter im Erzgebirge am 05.10.2015
Performance-Info: Die Erstellung der Seite / Statistik(en) / Tabelle(n) erforderte 5 Datenbankserver-Abfrage(n) und dauerte 97 Millisekunden. (Dieser Messwert ist von der Gesamt-Auslastung des Servers abhängig.)
Erzgebirge - Wetter | Erzgebirge - Wetter (Mobilgeräte) | Komplette Klimadatenbank